Time;durP1;ratioP1;P1;durP2;ratioP2;P2;SDS_P1;SDS_P2;PMS_P1;PMS_P2;Temp;Humidity;BMP_temperature;BMP_pressure;BME280_temperature;BME280_humidity;BME280_pressure;Samples;Min_cycle;Max_cycle;Signal;HPM_P1;HPM_P2
2021/10/26 00:01:36;;;;;;;0.10;0.10;;;;;;;;;;5011983;28;20228;-70
2021/10/26 00:04:04;;;;;;;1.60;1.50;;;;;;;;;;5011511;28;20207;-70
2021/10/26 00:06:33;;;;;;;0.33;0.13;;;;;;;;;;5012325;28;20212;-70
2021/10/26 00:09:00;;;;;;;0.30;0.30;;;;;;;;;;5012129;28;20657;-70
2021/10/26 00:11:27;;;;;;;0.77;0.30;;;;;;;;;;5013153;28;20207;-70
2021/10/26 00:13:55;;;;;;;0.00;0.00;;;;;;;;;;5012637;28;20208;-70
2021/10/26 00:16:22;;;;;;;1.30;1.10;;;;;;;;;;5011883;28;20218;-71
2021/10/26 00:18:50;;;;;;;0.30;0.30;;;;;;;;;;5011203;28;20217;-70
2021/10/26 00:21:17;;;;;;;0.00;0.00;;;;;;;;;;5012062;28;20318;-71
2021/10/26 00:23:46;;;;;;;0.00;0.00;;;;;;;;;;5018596;28;20242;-70
2021/10/26 00:26:13;;;;;;;0.00;0.00;;;;;;;;;;5020601;28;20208;-69
2021/10/26 00:28:41;;;;;;;1.30;0.30;;;;;;;;;;5020433;28;20291;-71
2021/10/26 00:31:08;;;;;;;0.00;0.00;;;;;;;;;;5018497;28;20212;-71
2021/10/26 00:33:36;;;;;;;0.00;0.00;;;;;;;;;;5012919;28;21439;-70
2021/10/26 00:36:03;;;;;;;0.00;0.00;;;;;;;;;;5020670;28;20207;-70
2021/10/26 00:38:30;;;;;;;0.00;0.00;;;;;;;;;;5021864;28;20211;-70
2021/10/26 00:40:59;;;;;;;0.00;0.00;;;;;;;;;;5019969;28;20200;-70
2021/10/26 00:43:27;;;;;;;0.00;0.00;;;;;;;;;;5021435;28;20242;-70
2021/10/26 00:45:55;;;;;;;0.30;0.30;;;;;;;;;;5022797;28;20205;-70
2021/10/26 00:48:22;;;;;;;0.00;0.00;;;;;;;;;;5020625;28;20211;-70
2021/10/26 00:50:50;;;;;;;0.00;0.00;;;;;;;;;;5021930;28;20207;-71
2021/10/26 00:53:20;;;;;;;0.00;0.00;;;;;;;;;;5021228;28;20299;-71
2021/10/26 00:55:48;;;;;;;0.00;0.00;;;;;;;;;;5020224;28;20215;-71
2021/10/26 00:58:18;;;;;;;0.30;0.30;;;;;;;;;;5019906;28;21003;-72
2021/10/26 01:00:46;;;;;;;0.53;0.53;;;;;;;;;;5021057;28;20214;-70
2021/10/26 01:03:13;;;;;;;0.00;0.00;;;;;;;;;;5019307;28;20236;-70
2021/10/26 01:05:40;;;;;;;0.00;0.00;;;;;;;;;;5021587;28;20204;-70
2021/10/26 01:08:08;;;;;;;0.77;0.30;;;;;;;;;;5019847;28;20239;-70
2021/10/26 01:10:36;;;;;;;0.00;0.00;;;;;;;;;;5022040;28;20673;-70
2021/10/26 01:13:04;;;;;;;0.10;0.10;;;;;;;;;;5020447;28;20208;-70
2021/10/26 01:15:33;;;;;;;0.20;0.20;;;;;;;;;;5020229;28;20207;-70
2021/10/26 01:18:01;;;;;;;0.00;0.00;;;;;;;;;;5016895;28;20201;-73
2021/10/26 01:20:30;;;;;;;0.00;0.00;;;;;;;;;;5012810;28;20728;-70
2021/10/26 01:22:57;;;;;;;0.00;0.00;;;;;;;;;;5012922;28;20255;-70
2021/10/26 01:25:25;;;;;;;0.00;0.00;;;;;;;;;;5013207;28;20196;-70
2021/10/26 01:27:54;;;;;;;0.43;0.43;;;;;;;;;;5017340;28;20295;-70
2021/10/26 01:30:25;;;;;;;0.10;0.10;;;;;;;;;;5019110;28;20231;-71
2021/10/26 01:32:53;;;;;;;0.00;0.00;;;;;;;;;;5018704;28;20258;-70
2021/10/26 01:35:20;;;;;;;0.00;0.00;;;;;;;;;;5021598;28;20222;-71
2021/10/26 01:37:49;;;;;;;0.00;0.00;;;;;;;;;;5020508;28;20223;-70
2021/10/26 01:40:17;;;;;;;0.00;0.00;;;;;;;;;;5020776;28;20211;-70
2021/10/26 01:42:44;;;;;;;0.30;0.30;;;;;;;;;;5021159;28;20239;-71
2021/10/26 01:45:12;;;;;;;0.00;0.00;;;;;;;;;;5019490;28;20203;-70
2021/10/26 01:47:40;;;;;;;0.00;0.00;;;;;;;;;;5018514;28;20677;-70
2021/10/26 01:50:09;;;;;;;0.00;0.00;;;;;;;;;;5020032;28;20208;-70
2021/10/26 01:52:36;;;;;;;0.00;0.00;;;;;;;;;;5020268;28;20211;-71
2021/10/26 01:55:06;;;;;;;0.00;0.00;;;;;;;;;;5017435;28;20200;-70
2021/10/26 01:57:34;;;;;;;0.10;0.10;;;;;;;;;;5019359;28;20201;-70
2021/10/26 02:00:05;;;;;;;0.00;0.00;;;;;;;;;;5020569;28;20201;-70
2021/10/26 02:02:32;;;;;;;0.00;0.00;;;;;;;;;;5020929;28;20227;-70
2021/10/26 02:05:00;;;;;;;0.00;0.00;;;;;;;;;;5020037;28;20208;-70
2021/10/26 02:07:27;;;;;;;0.00;0.00;;;;;;;;;;5020414;28;20294;-70
2021/10/26 02:09:54;;;;;;;0.00;0.00;;;;;;;;;;5020872;28;20200;-71
2021/10/26 02:12:23;;;;;;;0.00;0.00;;;;;;;;;;5020296;28;20216;-70
2021/10/26 02:14:51;;;;;;;0.00;0.00;;;;;;;;;;5019820;28;20210;-71
2021/10/26 02:17:18;;;;;;;0.00;0.00;;;;;;;;;;5020420;28;20212;-70
2021/10/26 02:19:46;;;;;;;0.00;0.00;;;;;;;;;;5020121;28;20266;-70
2021/10/26 02:22:14;;;;;;;0.00;0.00;;;;;;;;;;5019188;28;21298;-71
2021/10/26 02:24:41;;;;;;;0.00;0.00;;;;;;;;;;5019426;28;20200;-70
2021/10/26 02:27:09;;;;;;;0.00;0.00;;;;;;;;;;5020250;28;20205;-71
2021/10/26 02:29:38;;;;;;;0.00;0.00;;;;;;;;;;5017771;28;20208;-70
2021/10/26 02:32:06;;;;;;;0.10;0.10;;;;;;;;;;5024537;28;20216;-70
2021/10/26 02:34:33;;;;;;;0.00;0.00;;;;;;;;;;5024633;28;20226;-70
2021/10/26 02:37:01;;;;;;;0.00;0.00;;;;;;;;;;5023719;28;20235;-70
2021/10/26 02:39:28;;;;;;;0.00;0.00;;;;;;;;;;5021541;28;20212;-71
2021/10/26 02:41:55;;;;;;;0.00;0.00;;;;;;;;;;5025691;28;20243;-70
2021/10/26 02:44:23;;;;;;;0.00;0.00;;;;;;;;;;5023611;28;20224;-71
2021/10/26 02:46:52;;;;;;;0.00;0.00;;;;;;;;;;5022754;28;20209;-69
2021/10/26 02:49:19;;;;;;;0.00;0.00;;;;;;;;;;5022927;28;20526;-70
2021/10/26 02:51:46;;;;;;;0.00;0.00;;;;;;;;;;5024672;28;20208;-70
2021/10/26 02:54:14;;;;;;;0.10;0.10;;;;;;;;;;5023283;28;20208;-68
2021/10/26 02:56:42;;;;;;;0.00;0.00;;;;;;;;;;5025822;28;20577;-71
2021/10/26 02:59:09;;;;;;;0.00;0.00;;;;;;;;;;5023133;28;20262;-70
2021/10/26 03:01:37;;;;;;;0.00;0.00;;;;;;;;;;5022505;28;20204;-70
2021/10/26 03:04:06;;;;;;;0.00;0.00;;;;;;;;;;5022634;28;20674;-71
2021/10/26 03:06:33;;;;;;;0.00;0.00;;;;;;;;;;5023779;28;20673;-70
2021/10/26 03:09:01;;;;;;;0.00;0.00;;;;;;;;;;5022963;28;20204;-70
2021/10/26 03:11:28;;;;;;;0.00;0.00;;;;;;;;;;5022787;28;20216;-70
2021/10/26 03:13:56;;;;;;;0.00;0.00;;;;;;;;;;5023591;28;20205;-70
2021/10/26 03:16:23;;;;;;;0.00;0.00;;;;;;;;;;5023678;28;20204;-70
2021/10/26 03:18:50;;;;;;;0.00;0.00;;;;;;;;;;5021585;28;20212;-68
2021/10/26 03:21:19;;;;;;;0.00;0.00;;;;;;;;;;5024065;28;20214;-70
2021/10/26 03:23:47;;;;;;;0.00;0.00;;;;;;;;;;5022785;28;20228;-70
2021/10/26 03:26:14;;;;;;;0.00;0.00;;;;;;;;;;5024136;28;20220;-71
2021/10/26 03:28:42;;;;;;;0.00;0.00;;;;;;;;;;5022480;28;20205;-70
2021/10/26 03:31:09;;;;;;;0.00;0.00;;;;;;;;;;5023231;28;20306;-70
2021/10/26 03:33:37;;;;;;;0.33;0.33;;;;;;;;;;5021759;28;20259;-69
2021/10/26 03:36:04;;;;;;;0.00;0.00;;;;;;;;;;5024034;28;20575;-70
2021/10/26 03:38:35;;;;;;;0.00;0.00;;;;;;;;;;5022901;28;20207;-70
2021/10/26 03:41:03;;;;;;;0.00;0.00;;;;;;;;;;5023198;28;20203;-70
2021/10/26 03:43:31;;;;;;;0.27;0.27;;;;;;;;;;5018304;28;20709;-68
2021/10/26 03:45:58;;;;;;;0.33;0.33;;;;;;;;;;5021517;28;20196;-70
2021/10/26 03:48:27;;;;;;;0.00;0.00;;;;;;;;;;5021124;28;20215;-70
2021/10/26 03:50:55;;;;;;;0.20;0.10;;;;;;;;;;5021295;28;20216;-70
2021/10/26 03:53:22;;;;;;;0.00;0.00;;;;;;;;;;5022979;28;20792;-71
2021/10/26 03:55:51;;;;;;;0.00;0.00;;;;;;;;;;5024385;28;20207;-70
2021/10/26 03:58:19;;;;;;;0.00;0.00;;;;;;;;;;5020333;28;20834;-69
2021/10/26 04:00:46;;;;;;;0.00;0.00;;;;;;;;;;5019960;28;20208;-70
2021/10/26 04:03:14;;;;;;;0.00;0.00;;;;;;;;;;5020150;28;20303;-69
2021/10/26 04:05:45;;;;;;;0.00;0.00;;;;;;;;;;5019748;28;20212;-70
2021/10/26 04:08:26;;;;;;;0.00;0.00;;;;;;;;;;5021542;28;20208;-70
2021/10/26 04:10:57;;;;;;;0.00;0.00;;;;;;;;;;5021199;28;20204;-70
2021/10/26 04:13:26;;;;;;;0.00;0.00;;;;;;;;;;5023164;28;20270;-70
2021/10/26 04:15:55;;;;;;;0.00;0.00;;;;;;;;;;5022079;28;20578;-71
2021/10/26 04:18:23;;;;;;;0.10;0.10;;;;;;;;;;5020828;28;20215;-70
2021/10/26 04:20:50;;;;;;;0.23;0.23;;;;;;;;;;5022261;28;20212;-70
2021/10/26 04:23:18;;;;;;;0.00;0.00;;;;;;;;;;5022488;28;20224;-70
2021/10/26 04:25:45;;;;;;;0.00;0.00;;;;;;;;;;5022791;28;20212;-70
2021/10/26 04:28:14;;;;;;;0.00;0.00;;;;;;;;;;5020750;28;20200;-70
2021/10/26 04:30:58;;;;;;;0.00;0.00;;;;;;;;;;5021917;28;20692;-71
2021/10/26 04:33:25;;;;;;;0.00;0.00;;;;;;;;;;4968898;28;20264;-70
2021/10/26 04:35:52;;;;;;;0.10;0.10;;;;;;;;;;4964935;28;20206;-71
2021/10/26 04:38:20;;;;;;;0.00;0.00;;;;;;;;;;4962281;28;21019;-70
2021/10/26 04:40:48;;;;;;;0.00;0.00;;;;;;;;;;4971012;28;20202;-69
2021/10/26 04:43:18;;;;;;;0.00;0.00;;;;;;;;;;4969960;28;20246;-70
2021/10/26 04:45:46;;;;;;;0.00;0.00;;;;;;;;;;4969993;28;20214;-69
2021/10/26 04:48:15;;;;;;;0.00;0.00;;;;;;;;;;4968687;28;20214;-70
2021/10/26 04:50:43;;;;;;;0.10;0.10;;;;;;;;;;4966453;28;20990;-71
2021/10/26 04:53:11;;;;;;;0.00;0.00;;;;;;;;;;4967490;28;20355;-70
2021/10/26 04:55:39;;;;;;;0.00;0.00;;;;;;;;;;4964796;28;20194;-70
2021/10/26 04:58:06;;;;;;;0.00;0.00;;;;;;;;;;4968099;28;20217;-70
2021/10/26 05:00:35;;;;;;;0.00;0.00;;;;;;;;;;4964355;28;20198;-70
2021/10/26 05:03:02;;;;;;;0.00;0.00;;;;;;;;;;4968246;28;20222;-70
2021/10/26 05:05:30;;;;;;;2.00;1.90;;;;;;;;;;4968887;28;20225;-70
2021/10/26 05:07:57;;;;;;;0.00;0.00;;;;;;;;;;4970564;28;20212;-70
2021/10/26 05:10:25;;;;;;;0.00;0.00;;;;;;;;;;4991816;28;20208;-70
2021/10/26 05:12:52;;;;;;;0.00;0.00;;;;;;;;;;5024748;28;20590;-70
2021/10/26 05:15:20;;;;;;;0.73;0.50;;;;;;;;;;5020845;28;20255;-71
2021/10/26 05:17:51;;;;;;;0.00;0.00;;;;;;;;;;5028905;28;20279;-69
2021/10/26 05:20:20;;;;;;;0.00;0.00;;;;;;;;;;5025953;28;20200;-67
2021/10/26 05:22:51;;;;;;;0.00;0.00;;;;;;;;;;5026559;28;20227;-71
2021/10/26 05:25:18;;;;;;;0.10;0.10;;;;;;;;;;5022496;28;20214;-70
2021/10/26 05:27:46;;;;;;;0.23;0.20;;;;;;;;;;5028565;28;20205;-70
2021/10/26 05:30:14;;;;;;;0.00;0.00;;;;;;;;;;5027619;28;20303;-70
2021/10/26 05:32:42;;;;;;;0.00;0.00;;;;;;;;;;5020936;28;20204;-70
2021/10/26 05:35:11;;;;;;;0.00;0.00;;;;;;;;;;5014463;28;20228;-71
2021/10/26 05:37:39;;;;;;;0.00;0.00;;;;;;;;;;5023160;28;20203;-70
2021/10/26 05:40:08;;;;;;;0.00;0.00;;;;;;;;;;5025606;28;20214;-70
2021/10/26 05:42:35;;;;;;;0.00;0.00;;;;;;;;;;5018465;28;20247;-70
2021/10/26 05:45:02;;;;;;;0.00;0.00;;;;;;;;;;5024018;28;20218;-70
2021/10/26 05:47:30;;;;;;;0.00;0.00;;;;;;;;;;5018673;28;20592;-68
2021/10/26 05:49:57;;;;;;;0.83;0.73;;;;;;;;;;5021971;28;20239;-67
2021/10/26 05:52:26;;;;;;;0.00;0.00;;;;;;;;;;5026333;28;20655;-68
2021/10/26 05:54:53;;;;;;;0.00;0.00;;;;;;;;;;5025925;28;20197;-70
2021/10/26 05:57:21;;;;;;;0.00;0.00;;;;;;;;;;5024187;28;20204;-70
2021/10/26 05:59:48;;;;;;;0.00;0.00;;;;;;;;;;5025141;28;20737;-71
2021/10/26 06:02:16;;;;;;;0.17;0.17;;;;;;;;;;5021554;28;20204;-71
2021/10/26 06:04:43;;;;;;;1.50;0.77;;;;;;;;;;5026036;28;20231;-70
2021/10/26 06:07:11;;;;;;;0.00;0.00;;;;;;;;;;5032145;28;20208;-70
2021/10/26 06:09:39;;;;;;;0.00;0.00;;;;;;;;;;5029663;28;20207;-72
2021/10/26 06:12:11;;;;;;;0.37;0.37;;;;;;;;;;5030312;28;20283;-70
2021/10/26 06:14:42;;;;;;;0.00;0.00;;;;;;;;;;5027166;28;20670;-69
2021/10/26 06:17:10;;;;;;;0.33;0.17;;;;;;;;;;5031851;28;20288;-70
2021/10/26 06:19:37;;;;;;;0.00;0.00;;;;;;;;;;5031271;28;20211;-70
2021/10/26 06:22:05;;;;;;;0.20;0.20;;;;;;;;;;5029953;28;20220;-69
2021/10/26 06:24:32;;;;;;;0.50;0.50;;;;;;;;;;5030173;28;20712;-70
2021/10/26 06:27:01;;;;;;;0.10;0.10;;;;;;;;;;5031212;28;20204;-69
2021/10/26 06:29:28;;;;;;;0.07;0.07;;;;;;;;;;5027814;28;20208;-69
2021/10/26 06:31:56;;;;;;;0.10;0.10;;;;;;;;;;5031393;28;20206;-70
2021/10/26 06:34:23;;;;;;;0.20;0.20;;;;;;;;;;5032446;28;20211;-69
2021/10/26 06:36:51;;;;;;;0.00;0.00;;;;;;;;;;5026717;28;20291;-70
2021/10/26 06:39:21;;;;;;;0.30;0.30;;;;;;;;;;5029134;28;20292;-70
2021/10/26 06:41:48;;;;;;;0.60;0.60;;;;;;;;;;5028871;28;20208;-70
2021/10/26 06:44:17;;;;;;;0.20;0.10;;;;;;;;;;5025365;28;20239;-70
2021/10/26 06:46:45;;;;;;;0.10;0.10;;;;;;;;;;5026170;28;20216;-71
2021/10/26 06:49:12;;;;;;;0.70;0.43;;;;;;;;;;5028026;28;20201;-70
2021/10/26 06:51:40;;;;;;;0.03;0.03;;;;;;;;;;5027448;28;20212;-69
2021/10/26 06:54:09;;;;;;;2.90;1.00;;;;;;;;;;5025497;28;20646;-70
2021/10/26 06:56:37;;;;;;;0.40;0.20;;;;;;;;;;5028274;28;20282;-71
2021/10/26 06:59:05;;;;;;;0.00;0.00;;;;;;;;;;5021626;28;20216;-71
2021/10/26 07:01:33;;;;;;;0.00;0.00;;;;;;;;;;5032314;28;20211;-71
2021/10/26 07:04:01;;;;;;;0.53;0.53;;;;;;;;;;5026721;28;20599;-71
2021/10/26 07:06:29;;;;;;;0.43;0.13;;;;;;;;;;5018606;28;20208;-70
2021/10/26 07:08:57;;;;;;;0.00;0.00;;;;;;;;;;5026611;28;20207;-70
2021/10/26 07:11:25;;;;;;;2.70;1.20;;;;;;;;;;5024480;28;20279;-70
2021/10/26 07:13:52;;;;;;;1.17;0.40;;;;;;;;;;5028509;28;20577;-69
2021/10/26 07:16:20;;;;;;;0.00;0.00;;;;;;;;;;5025438;28;20204;-72
2021/10/26 07:18:49;;;;;;;0.13;0.13;;;;;;;;;;5030799;28;20196;-72
2021/10/26 07:21:18;;;;;;;1.03;0.97;;;;;;;;;;5026063;28;20208;-69
2021/10/26 07:23:45;;;;;;;0.10;0.10;;;;;;;;;;5029030;28;20303;-69
2021/10/26 07:26:13;;;;;;;0.00;0.00;;;;;;;;;;5028604;28;20226;-70
2021/10/26 07:28:40;;;;;;;2.43;0.77;;;;;;;;;;5021139;28;20212;-71
2021/10/26 07:31:08;;;;;;;0.73;0.73;;;;;;;;;;5028314;28;20211;-70
2021/10/26 07:33:35;;;;;;;0.30;0.30;;;;;;;;;;5029309;28;20207;-70
2021/10/26 07:36:07;;;;;;;0.80;0.33;;;;;;;;;;5030527;28;20204;-70
2021/10/26 07:38:38;;;;;;;0.10;0.10;;;;;;;;;;5026670;28;20212;-71
2021/10/26 07:41:05;;;;;;;1.97;1.40;;;;;;;;;;5024634;28;20375;-74
2021/10/26 07:43:34;;;;;;;0.47;0.47;;;;;;;;;;5021704;28;20606;-70
2021/10/26 07:46:02;;;;;;;0.67;0.67;;;;;;;;;;5025623;28;20197;-72
2021/10/26 07:48:30;;;;;;;0.60;0.60;;;;;;;;;;5026893;28;20232;-73
2021/10/26 07:50:59;;;;;;;0.77;0.70;;;;;;;;;;5030245;28;20208;-70
2021/10/26 07:53:29;;;;;;;0.13;0.10;;;;;;;;;;5029927;28;20548;-70
2021/10/26 07:55:57;;;;;;;0.17;0.17;;;;;;;;;;5027449;28;20208;-70
2021/10/26 07:58:25;;;;;;;0.60;0.50;;;;;;;;;;5027738;28;20236;-71
2021/10/26 08:00:53;;;;;;;0.10;0.10;;;;;;;;;;5031625;28;20220;-70
2021/10/26 08:03:21;;;;;;;1.20;0.40;;;;;;;;;;5025218;28;20547;-70
2021/10/26 08:05:48;;;;;;;2.03;0.77;;;;;;;;;;5026390;28;20204;-69
2021/10/26 08:08:17;;;;;;;0.00;0.00;;;;;;;;;;5021987;28;20228;-70
2021/10/26 08:10:47;;;;;;;0.30;0.30;;;;;;;;;;5027851;28;20208;-70
2021/10/26 08:13:15;;;;;;;1.10;1.00;;;;;;;;;;5031158;28;20204;-71
2021/10/26 08:15:42;;;;;;;0.53;0.53;;;;;;;;;;5019481;28;20216;-71
2021/10/26 08:18:10;;;;;;;0.50;0.50;;;;;;;;;;5026193;28;20197;-70
2021/10/26 08:20:37;;;;;;;0.30;0.30;;;;;;;;;;5028638;28;20204;-69
2021/10/26 08:23:05;;;;;;;0.40;0.40;;;;;;;;;;5022457;28;20204;-71
2021/10/26 08:25:36;;;;;;;1.20;1.20;;;;;;;;;;5028774;28;20227;-70
2021/10/26 08:28:09;;;;;;;0.90;0.83;;;;;;;;;;5024360;28;20630;-69
2021/10/26 08:30:39;;;;;;;1.40;1.30;;;;;;;;;;5022858;28;20674;-69
2021/10/26 08:33:17;;;;;;;2.03;0.97;;;;;;;;;;5028246;28;20300;-70
2021/10/26 08:35:46;;;;;;;0.33;0.23;;;;;;;;;;5027808;28;20574;-70
2021/10/26 08:38:14;;;;;;;1.90;1.50;;;;;;;;;;5028223;28;20200;-69
2021/10/26 08:40:47;;;;;;;0.00;0.00;;;;;;;;;;5031925;28;20211;-70
2021/10/26 08:43:16;;;;;;;0.37;0.37;;;;;;;;;;5029308;28;20228;-70
2021/10/26 08:45:48;;;;;;;0.73;0.43;;;;;;;;;;5043164;28;20231;-71
2021/10/26 08:48:20;;;;;;;0.77;0.77;;;;;;;;;;5027596;28;20723;-70
2021/10/26 08:50:48;;;;;;;0.10;0.10;;;;;;;;;;5026492;28;20618;-69
2021/10/26 08:53:16;;;;;;;1.10;1.10;;;;;;;;;;5018411;28;20204;-69
2021/10/26 08:55:44;;;;;;;0.27;0.20;;;;;;;;;;5031031;28;20267;-69
2021/10/26 08:58:12;;;;;;;1.93;1.20;;;;;;;;;;5026531;28;20255;-70
2021/10/26 09:00:41;;;;;;;0.10;0.10;;;;;;;;;;5034641;28;20240;-70
2021/10/26 09:03:18;;;;;;;0.40;0.40;;;;;;;;;;5034226;28;20200;-71
2021/10/26 09:05:46;;;;;;;0.40;0.40;;;;;;;;;;5026906;28;20612;-69
2021/10/26 09:08:14;;;;;;;0.83;0.43;;;;;;;;;;5019552;28;20257;-69
2021/10/26 09:10:42;;;;;;;0.00;0.00;;;;;;;;;;5028214;28;20239;-69
2021/10/26 09:18:45;;;;;;;0.33;0.33;;;;;;;;;;5019308;28;20281;-70
2021/10/26 09:21:25;;;;;;;1.30;1.20;;;;;;;;;;5018092;28;20205;-70
2021/10/26 09:23:55;;;;;;;5.73;0.53;;;;;;;;;;5019505;28;20266;-70
2021/10/26 09:26:23;;;;;;;1.63;1.33;;;;;;;;;;5021409;28;20590;-71
2021/10/26 09:28:52;;;;;;;0.50;0.43;;;;;;;;;;5020161;28;20220;-70
2021/10/26 09:31:27;;;;;;;0.00;0.00;;;;;;;;;;5019323;28;20292;-72
2021/10/26 09:34:00;;;;;;;0.90;0.90;;;;;;;;;;5028963;28;20199;-70
2021/10/26 09:36:28;;;;;;;0.33;0.33;;;;;;;;;;5031081;28;20307;-69
2021/10/26 09:39:10;;;;;;;0.97;0.87;;;;;;;;;;5023103;28;20207;-70
2021/10/26 09:41:38;;;;;;;0.00;0.00;;;;;;;;;;5025153;28;20250;-69
2021/10/26 09:44:12;;;;;;;0.03;0.03;;;;;;;;;;5025729;28;20752;-69
2021/10/26 09:46:50;;;;;;;1.00;1.00;;;;;;;;;;5023510;28;20204;-70
2021/10/26 09:49:23;;;;;;;0.20;0.20;;;;;;;;;;5024826;28;20200;-70
2021/10/26 09:51:51;;;;;;;0.67;0.67;;;;;;;;;;5040447;28;20304;-70
2021/10/26 09:54:20;;;;;;;0.40;0.40;;;;;;;;;;5023871;28;20200;-70
2021/10/26 09:57:03;;;;;;;3.27;1.13;;;;;;;;;;5023758;28;21010;-68
2021/10/26 09:59:31;;;;;;;2.10;1.07;;;;;;;;;;5025822;28;20283;-70
2021/10/26 10:02:00;;;;;;;0.40;0.30;;;;;;;;;;5023736;28;20196;-69
2021/10/26 10:04:28;;;;;;;0.00;0.00;;;;;;;;;;5025943;28;20231;-70
2021/10/26 10:06:56;;;;;;;2.97;0.97;;;;;;;;;;5025757;28;20201;-70
2021/10/26 10:09:24;;;;;;;1.17;1.07;;;;;;;;;;5025285;28;20208;-69
2021/10/26 10:12:05;;;;;;;0.50;0.50;;;;;;;;;;5024663;28;20200;-70
2021/10/26 10:14:36;;;;;;;0.73;0.73;;;;;;;;;;5024141;28;20223;-69
2021/10/26 10:17:07;;;;;;;1.07;1.07;;;;;;;;;;5026617;28;20197;-69
2021/10/26 10:19:35;;;;;;;0.57;0.20;;;;;;;;;;5022758;28;20680;-69
2021/10/26 10:22:04;;;;;;;0.57;0.50;;;;;;;;;;5025096;28;20266;-70
2021/10/26 10:24:34;;;;;;;0.20;0.20;;;;;;;;;;5024824;28;20228;-69
2021/10/26 10:27:02;;;;;;;0.40;0.40;;;;;;;;;;5025196;28;20214;-69
2021/10/26 10:29:29;;;;;;;2.20;1.27;;;;;;;;;;5024969;28;20189;-71
2021/10/26 10:31:57;;;;;;;1.93;1.83;;;;;;;;;;5026745;28;20201;-70
2021/10/26 10:34:26;;;;;;;0.90;0.90;;;;;;;;;;5024205;28;20208;-69
2021/10/26 10:36:54;;;;;;;1.00;0.83;;;;;;;;;;5026166;28;20200;-70
2021/10/26 10:39:27;;;;;;;0.10;0.10;;;;;;;;;;5024328;28;20204;-69
2021/10/26 10:42:18;;;;;;;0.27;0.27;;;;;;;;;;5020949;28;20247;-71
2021/10/26 10:44:46;;;;;;;0.10;0.10;;;;;;;;;;5016107;28;20276;-70
2021/10/26 10:47:28;;;;;;;0.27;0.27;;;;;;;;;;5014750;28;20689;-70
2021/10/26 10:49:57;;;;;;;1.90;0.73;;;;;;;;;;5018207;28;20203;-71
2021/10/26 10:52:30;;;;;;;0.53;0.53;;;;;;;;;;5018720;28;20212;-70
2021/10/26 10:54:58;;;;;;;0.03;0.03;;;;;;;;;;5019399;28;20212;-70
2021/10/26 10:57:29;;;;;;;0.10;0.10;;;;;;;;;;5019002;28;20681;-70
2021/10/26 10:59:57;;;;;;;2.10;1.37;;;;;;;;;;5019368;28;20215;-70
2021/10/26 11:02:26;;;;;;;0.00;0.00;;;;;;;;;;5020367;28;20204;-70
2021/10/26 11:04:55;;;;;;;0.53;0.53;;;;;;;;;;5019806;28;20278;-69
2021/10/26 11:07:41;;;;;;;0.20;0.20;;;;;;;;;;5018184;28;20208;-70
2021/10/26 11:10:10;;;;;;;0.67;0.53;;;;;;;;;;5019762;28;20212;-69
2021/10/26 11:12:38;;;;;;;0.10;0.10;;;;;;;;;;5018298;28;20685;-70
2021/10/26 11:15:07;;;;;;;0.70;0.37;;;;;;;;;;5019026;28;20209;-70
2021/10/26 11:17:59;;;;;;;0.43;0.20;;;;;;;;;;5019302;28;20197;-70
2021/10/26 11:20:42;;;;;;;0.23;0.23;;;;;;;;;;5020794;28;20211;-70
2021/10/26 11:23:14;;;;;;;0.00;0.00;;;;;;;;;;5020846;28;21437;-69
2021/10/26 11:25:45;;;;;;;0.43;0.33;;;;;;;;;;5017874;28;20236;-70
2021/10/26 11:28:30;;;;;;;0.40;0.40;;;;;;;;;;5021200;28;20958;-69
2021/10/26 11:31:01;;;;;;;0.77;0.77;;;;;;;;;;5021070;28;20234;-70
2021/10/26 11:33:32;;;;;;;0.20;0.10;;;;;;;;;;5019604;28;20222;-71
2021/10/26 11:36:03;;;;;;;0.63;0.23;;;;;;;;;;5017686;28;20208;-70
2021/10/26 11:38:32;;;;;;;0.23;0.23;;;;;;;;;;5020007;28;20207;-70
2021/10/26 11:41:02;;;;;;;0.10;0.10;;;;;;;;;;5016837;28;20216;-70
2021/10/26 11:43:31;;;;;;;0.43;0.43;;;;;;;;;;5018477;28;21001;-69
2021/10/26 11:46:00;;;;;;;0.00;0.00;;;;;;;;;;5019717;28;20732;-69
2021/10/26 11:48:47;;;;;;;0.10;0.10;;;;;;;;;;5020843;28;20212;-69
2021/10/26 11:51:21;;;;;;;0.30;0.10;;;;;;;;;;5017870;28;20215;-71
2021/10/26 11:53:50;;;;;;;0.20;0.20;;;;;;;;;;5017968;28;20218;-70
2021/10/26 11:56:26;;;;;;;0.00;0.00;;;;;;;;;;5020077;28;20998;-70
2021/10/26 11:59:00;;;;;;;0.47;0.47;;;;;;;;;;5018283;28;20211;-69
2021/10/26 12:01:48;;;;;;;0.10;0.10;;;;;;;;;;5018033;28;20210;-70
2021/10/26 12:04:19;;;;;;;0.13;0.13;;;;;;;;;;5016096;28;20670;-69
2021/10/26 12:06:47;;;;;;;0.30;0.30;;;;;;;;;;5017722;28;20228;-69
2021/10/26 12:09:16;;;;;;;0.00;0.00;;;;;;;;;;5019327;28;20281;-70
2021/10/26 12:11:46;;;;;;;0.40;0.20;;;;;;;;;;5016858;28;20282;-69
2021/10/26 12:14:26;;;;;;;0.10;0.10;;;;;;;;;;5020225;28;20571;-70
2021/10/26 12:17:12;;;;;;;0.10;0.10;;;;;;;;;;5017866;28;20239;-71
2021/10/26 12:19:41;;;;;;;0.10;0.10;;;;;;;;;;5018264;28;20295;-70
2021/10/26 12:22:13;;;;;;;0.00;0.00;;;;;;;;;;5014964;28;20212;-70
2021/10/26 12:24:45;;;;;;;0.03;0.03;;;;;;;;;;5018072;28;20684;-69
2021/10/26 12:27:14;;;;;;;0.20;0.20;;;;;;;;;;5017985;28;20557;-69
2021/10/26 12:29:42;;;;;;;0.10;0.10;;;;;;;;;;5018984;28;20258;-69
2021/10/26 12:32:10;;;;;;;0.00;0.00;;;;;;;;;;5017782;28;20205;-69
2021/10/26 12:34:41;;;;;;;0.10;0.10;;;;;;;;;;5018967;28;20676;-70
2021/10/26 12:37:29;;;;;;;0.00;0.00;;;;;;;;;;5015192;28;20208;-70
2021/10/26 12:39:57;;;;;;;0.10;0.10;;;;;;;;;;5018181;28;20204;-70
2021/10/26 12:42:40;;;;;;;0.00;0.00;;;;;;;;;;5019685;28;20232;-70
2021/10/26 12:45:09;;;;;;;0.13;0.13;;;;;;;;;;5019400;28;20557;-69
2021/10/26 12:47:52;;;;;;;0.00;0.00;;;;;;;;;;5019028;28;20223;-70
2021/10/26 12:50:37;;;;;;;1.70;0.43;;;;;;;;;;5017037;28;20200;-70
2021/10/26 12:53:18;;;;;;;0.10;0.00;;;;;;;;;;5020210;28;20212;-71
2021/10/26 12:55:46;;;;;;;1.80;1.70;;;;;;;;;;5017553;28;20216;-70
2021/10/26 12:58:32;;;;;;;0.20;0.00;;;;;;;;;;5017530;28;20219;-70
2021/10/26 13:01:01;;;;;;;0.10;0.10;;;;;;;;;;5018121;28;20204;-70
2021/10/26 13:03:29;;;;;;;0.00;0.00;;;;;;;;;;5015647;28;20209;-71
2021/10/26 13:05:58;;;;;;;0.10;0.10;;;;;;;;;;5016614;28;20232;-70
2021/10/26 13:08:25;;;;;;;0.10;0.10;;;;;;;;;;5016613;28;20212;-71
2021/10/26 13:10:53;;;;;;;0.28;0.28;;;;;;;;;;5017070;28;20208;-70
2021/10/26 13:13:21;;;;;;;0.10;0.10;;;;;;;;;;5017098;28;20231;-71
2021/10/26 13:15:49;;;;;;;0.00;0.00;;;;;;;;;;5022540;28;20214;-69
2021/10/26 13:18:25;;;;;;;0.13;0.13;;;;;;;;;;5020415;28;20830;-71
2021/10/26 13:20:53;;;;;;;0.10;0.10;;;;;;;;;;5014332;28;20685;-71
2021/10/26 13:23:28;;;;;;;0.00;0.00;;;;;;;;;;5016848;28;20200;-71
2021/10/26 13:25:58;;;;;;;0.10;0.10;;;;;;;;;;5019148;28;20799;-71
2021/10/26 13:28:26;;;;;;;0.33;0.33;;;;;;;;;;5022691;28;20674;-70
2021/10/26 13:30:56;;;;;;;0.00;0.00;;;;;;;;;;5027181;28;20197;-71
2021/10/26 13:33:25;;;;;;;0.20;0.20;;;;;;;;;;5019517;28;20204;-71
2021/10/26 13:35:53;;;;;;;1.30;0.83;;;;;;;;;;5018343;28;20230;-71
2021/10/26 13:38:21;;;;;;;0.00;0.00;;;;;;;;;;5018099;28;20209;-71
2021/10/26 13:40:48;;;;;;;0.00;0.00;;;;;;;;;;5017523;28;20208;-71
2021/10/26 13:43:16;;;;;;;0.03;0.03;;;;;;;;;;5015206;28;20232;-71
2021/10/26 13:45:44;;;;;;;0.20;0.20;;;;;;;;;;5017698;28;20609;-69
2021/10/26 13:48:13;;;;;;;0.10;0.10;;;;;;;;;;5017433;28;20230;-70
2021/10/26 13:50:43;;;;;;;0.20;0.10;;;;;;;;;;5017048;28;20200;-70
2021/10/26 13:53:10;;;;;;;0.10;0.10;;;;;;;;;;5015764;28;20645;-71
2021/10/26 13:55:38;;;;;;;0.00;0.00;;;;;;;;;;5017930;28;20219;-70
2021/10/26 13:58:06;;;;;;;0.00;0.00;;;;;;;;;;5016686;28;20700;-71
2021/10/26 14:00:35;;;;;;;3.20;0.57;;;;;;;;;;5016609;28;20223;-71
2021/10/26 14:03:03;;;;;;;1.40;0.50;;;;;;;;;;5015018;28;20208;-71
2021/10/26 14:05:31;;;;;;;0.10;0.10;;;;;;;;;;5031793;28;20291;-73
2021/10/26 14:08:00;;;;;;;0.27;0.27;;;;;;;;;;5033268;28;20196;-70
2021/10/26 14:10:28;;;;;;;0.00;0.00;;;;;;;;;;5023789;28;20833;-71
2021/10/26 14:12:55;;;;;;;0.27;0.10;;;;;;;;;;5025308;28;20205;-72
2021/10/26 14:15:23;;;;;;;0.00;0.00;;;;;;;;;;5023773;28;20751;-69
2021/10/26 14:17:50;;;;;;;12.33;0.70;;;;;;;;;;5025435;28;20201;-72
2021/10/26 14:20:19;;;;;;;1.80;0.30;;;;;;;;;;5023240;28;21047;-71
2021/10/26 14:22:47;;;;;;;0.00;0.00;;;;;;;;;;5025687;28;20204;-71
2021/10/26 14:25:16;;;;;;;0.40;0.37;;;;;;;;;;5027729;28;20203;-72
2021/10/26 14:27:45;;;;;;;0.03;0.03;;;;;;;;;;5028405;28;20208;-71
2021/10/26 14:30:13;;;;;;;0.00;0.00;;;;;;;;;;5026931;28;20266;-71
2021/10/26 14:32:49;;;;;;;0.00;0.00;;;;;;;;;;5030124;28;20650;-71
2021/10/26 14:35:16;;;;;;;0.20;0.20;;;;;;;;;;5028005;28;20748;-71
2021/10/26 14:37:50;;;;;;;0.30;0.30;;;;;;;;;;5029356;28;20200;-72
2021/10/26 14:54:21;;;;;;;0.57;0.40;;;;;;;;;;5030131;28;20258;-71
2021/10/26 14:56:50;;;;;;;0.83;0.83;;;;;;;;;;5027135;28;20207;-71
2021/10/26 14:59:17;;;;;;;0.00;0.00;;;;;;;;;;5028984;28;20228;-73
2021/10/26 15:01:45;;;;;;;0.00;0.00;;;;;;;;;;5028404;28;20196;-72
2021/10/26 15:04:13;;;;;;;5.30;0.50;;;;;;;;;;5028266;28;20196;-71
2021/10/26 15:06:41;;;;;;;0.33;0.33;;;;;;;;;;5027753;28;20247;-72
2021/10/26 15:09:12;;;;;;;0.40;0.40;;;;;;;;;;5028420;28;20215;-72
2021/10/26 15:11:40;;;;;;;0.00;0.00;;;;;;;;;;5026858;28;20200;-72
2021/10/26 15:14:11;;;;;;;0.20;0.20;;;;;;;;;;5029401;28;20200;-71
2021/10/26 15:16:41;;;;;;;0.37;0.37;;;;;;;;;;5027798;28;20872;-71